sensor_id;sensor_type;location;lat;lon;timestamp;pressure;altitude;pressure_sealevel;temperature;humidity
54248;BME280;40161;39.768;2.722;2023-03-17T00:00:47;101140.69;;;15.89;44.13
54248;BME280;40161;39.768;2.722;2023-03-17T00:03:27;101111.66;;;15.33;48.52
54248;BME280;40161;39.768;2.722;2023-03-17T00:05:55;101134.59;;;15.44;50.45
54248;BME280;40161;39.768;2.722;2023-03-17T00:08:22;101142.38;;;15.13;52.95
54248;BME280;40161;39.768;2.722;2023-03-17T00:10:49;101148.63;;;15.03;55.34
54248;BME280;40161;39.768;2.722;2023-03-17T00:13:15;101146.06;;;14.69;57.63
54248;BME280;40161;39.768;2.722;2023-03-17T00:15:42;101159.94;;;14.77;59.15
54248;BME280;40161;39.768;2.722;2023-03-17T00:18:14;101144.47;;;14.68;60.26
54248;BME280;40161;39.768;2.722;2023-03-17T00:20:41;101095.25;;;14.33;61.13
54248;BME280;40161;39.768;2.722;2023-03-17T00:23:14;101134.50;;;14.53;62.38
54248;BME280;40161;39.768;2.722;2023-03-17T00:25:41;101136.72;;;14.40;63.08
54248;BME280;40161;39.768;2.722;2023-03-17T00:28:24;101145.38;;;14.35;64.84
54248;BME280;40161;39.768;2.722;2023-03-17T00:30:58;101141.00;;;14.34;64.63
54248;BME280;40161;39.768;2.722;2023-03-17T00:33:27;101150.00;;;14.28;65.28
54248;BME280;40161;39.768;2.722;2023-03-17T00:35:54;101149.16;;;14.20;65.67
54248;BME280;40161;39.768;2.722;2023-03-17T00:38:21;101148.44;;;14.27;64.41
54248;BME280;40161;39.768;2.722;2023-03-17T00:40:49;101141.31;;;14.22;64.16
54248;BME280;40161;39.768;2.722;2023-03-17T00:43:15;101126.09;;;13.98;64.63
54248;BME280;40161;39.768;2.722;2023-03-17T00:45:42;101139.28;;;14.15;66.25
54248;BME280;40161;39.768;2.722;2023-03-17T00:48:20;101147.91;;;14.14;66.69
54248;BME280;40161;39.768;2.722;2023-03-17T00:50:47;101143.88;;;14.00;67.10
54248;BME280;40161;39.768;2.722;2023-03-17T00:53:16;101133.56;;;13.94;66.96
54248;BME280;40161;39.768;2.722;2023-03-17T00:55:43;101139.19;;;14.05;66.84
54248;BME280;40161;39.768;2.722;2023-03-17T00:58:18;101136.25;;;13.87;67.94
54248;BME280;40161;39.768;2.722;2023-03-17T01:00:47;101144.66;;;13.64;68.95
54248;BME280;40161;39.768;2.722;2023-03-17T01:03:13;101147.34;;;13.57;70.13
54248;BME280;40161;39.768;2.722;2023-03-17T01:05:40;101148.28;;;13.71;70.03
54248;BME280;40161;39.768;2.722;2023-03-17T01:08:06;101148.25;;;13.68;70.51
54248;BME280;40161;39.768;2.722;2023-03-17T01:10:32;101150.06;;;13.53;70.70
54248;BME280;40161;39.768;2.722;2023-03-17T01:12:58;101122.41;;;13.19;70.82
54248;BME280;40161;39.768;2.722;2023-03-17T01:15:26;101170.31;;;13.38;71.01
54248;BME280;40161;39.768;2.722;2023-03-17T01:17:53;101176.28;;;13.40;70.46
54248;BME280;40161;39.768;2.722;2023-03-17T01:20:21;101135.03;;;13.20;70.61
54248;BME280;40161;39.768;2.722;2023-03-17T01:22:48;101184.00;;;13.61;70.28
54248;BME280;40161;39.768;2.722;2023-03-17T01:25:16;101173.16;;;13.45;70.26
54248;BME280;40161;39.768;2.722;2023-03-17T01:27:42;101183.31;;;13.37;70.80
54248;BME280;40161;39.768;2.722;2023-03-17T01:32:44;101166.16;;;12.94;72.42
54248;BME280;40161;39.768;2.722;2023-03-17T01:35:10;101176.56;;;13.04;73.70
54248;BME280;40161;39.768;2.722;2023-03-17T01:37:36;101173.94;;;13.15;72.58
54248;BME280;40161;39.768;2.722;2023-03-17T01:40:02;101176.97;;;13.33;71.02
54248;BME280;40161;39.768;2.722;2023-03-17T01:42:28;101179.88;;;13.17;70.06
54248;BME280;40161;39.768;2.722;2023-03-17T01:46:10;101168.88;;;12.91;71.37
54248;BME280;40161;39.768;2.722;2023-03-17T01:47:53;101180.88;;;13.05;71.72
54248;BME280;40161;39.768;2.722;2023-03-17T01:50:19;101123.47;;;12.81;70.50
54248;BME280;40161;39.768;2.722;2023-03-17T01:52:45;101165.28;;;13.17;69.54
54248;BME280;40161;39.768;2.722;2023-03-17T01:55:14;101169.78;;;12.98;68.98
54248;BME280;40161;39.768;2.722;2023-03-17T01:57:46;101164.91;;;12.88;70.33
54248;BME280;40161;39.768;2.722;2023-03-17T02:00:17;101172.00;;;12.89;70.20
54248;BME280;40161;39.768;2.722;2023-03-17T02:02:47;101153.41;;;12.56;72.18
54248;BME280;40161;39.768;2.722;2023-03-17T02:05:17;101163.66;;;12.86;71.21
54248;BME280;40161;39.768;2.722;2023-03-17T02:07:44;101162.25;;;12.95;70.07
54248;BME280;40161;39.768;2.722;2023-03-17T02:10:12;101161.50;;;12.98;70.03
54248;BME280;40161;39.768;2.722;2023-03-17T02:12:41;101159.84;;;12.67;69.85
54248;BME280;40161;39.768;2.722;2023-03-17T02:15:07;101145.44;;;12.51;70.70
54248;BME280;40161;39.768;2.722;2023-03-17T02:17:33;101157.50;;;12.69;69.71
54248;BME280;40161;39.768;2.722;2023-03-17T02:22:57;101109.50;;;11.94;70.46
54248;BME280;40161;39.768;2.722;2023-03-17T02:25:25;101139.34;;;12.15;71.60
54248;BME280;40161;39.768;2.722;2023-03-17T02:27:56;101140.31;;;12.03;72.59
54248;BME280;40161;39.768;2.722;2023-03-17T02:30:24;101128.28;;;12.11;71.73
54248;BME280;40161;39.768;2.722;2023-03-17T02:32:50;101105.81;;;12.09;71.62
54248;BME280;40161;39.768;2.722;2023-03-17T02:35:19;101133.03;;;12.15;71.81
54248;BME280;40161;39.768;2.722;2023-03-17T02:37:46;101137.50;;;12.23;73.08
54248;BME280;40161;39.768;2.722;2023-03-17T02:40:13;101075.72;;;11.74;72.26
54248;BME280;40161;39.768;2.722;2023-03-17T02:42:38;101125.34;;;11.81;73.85
54248;BME280;40161;39.768;2.722;2023-03-17T02:45:05;101131.84;;;11.93;73.22
54248;BME280;40161;39.768;2.722;2023-03-17T02:47:32;101146.84;;;11.95;73.03
54248;BME280;40161;39.768;2.722;2023-03-17T02:49:58;101138.84;;;12.09;72.99
54248;BME280;40161;39.768;2.722;2023-03-17T02:52:24;101135.38;;;12.13;71.60
54248;BME280;40161;39.768;2.722;2023-03-17T02:54:50;101132.31;;;11.95;72.99
54248;BME280;40161;39.768;2.722;2023-03-17T02:57:15;101115.13;;;11.82;73.29
54248;BME280;40161;39.768;2.722;2023-03-17T02:59:41;101115.47;;;12.00;72.96
54248;BME280;40161;39.768;2.722;2023-03-17T03:02:07;101106.22;;;12.08;71.86
54248;BME280;40161;39.768;2.722;2023-03-17T03:04:33;101085.25;;;11.19;73.69
54248;BME280;40161;39.768;2.722;2023-03-17T03:06:59;101114.81;;;11.45;74.63
54248;BME280;40161;39.768;2.722;2023-03-17T03:09:24;101132.25;;;11.33;74.61
54248;BME280;40161;39.768;2.722;2023-03-17T03:11:50;101123.78;;;11.41;74.94
54248;BME280;40161;39.768;2.722;2023-03-17T03:14:15;101129.84;;;11.70;73.36
54248;BME280;40161;39.768;2.722;2023-03-17T03:16:41;101124.63;;;11.46;74.29
54248;BME280;40161;39.768;2.722;2023-03-17T03:19:08;101124.09;;;11.36;75.69
54248;BME280;40161;39.768;2.722;2023-03-17T03:21:34;101104.31;;;11.50;74.33
54248;BME280;40161;39.768;2.722;2023-03-17T03:24:01;101122.53;;;11.78;73.71
54248;BME280;40161;39.768;2.722;2023-03-17T03:26:27;101121.91;;;11.84;73.63
54248;BME280;40161;39.768;2.722;2023-03-17T03:28:52;101108.97;;;11.46;73.29
54248;BME280;40161;39.768;2.722;2023-03-17T03:31:18;101079.84;;;11.22;75.19
54248;BME280;40161;39.768;2.722;2023-03-17T03:33:44;101077.72;;;11.35;73.64
54248;BME280;40161;39.768;2.722;2023-03-17T03:36:10;101113.06;;;11.56;73.60
54248;BME280;40161;39.768;2.722;2023-03-17T03:38:36;101119.22;;;11.49;73.02
54248;BME280;40161;39.768;2.722;2023-03-17T03:41:02;101114.41;;;11.43;73.96
54248;BME280;40161;39.768;2.722;2023-03-17T03:43:27;101046.94;;;11.06;73.56
54248;BME280;40161;39.768;2.722;2023-03-17T03:45:53;101058.88;;;10.95;73.42
54248;BME280;40161;39.768;2.722;2023-03-17T03:48:21;101114.03;;;10.89;75.58
54248;BME280;40161;39.768;2.722;2023-03-17T03:50:47;101100.22;;;11.02;76.67
54248;BME280;40161;39.768;2.722;2023-03-17T03:53:13;101100.59;;;11.39;72.86
54248;BME280;40161;39.768;2.722;2023-03-17T03:55:38;101099.91;;;10.87;75.82
54248;BME280;40161;39.768;2.722;2023-03-17T03:58:04;101055.72;;;10.77;76.57
54248;BME280;40161;39.768;2.722;2023-03-17T04:00:30;101057.31;;;10.78;74.38
54248;BME280;40161;39.768;2.722;2023-03-17T04:02:56;101093.66;;;10.71;75.78
54248;BME280;40161;39.768;2.722;2023-03-17T04:05:21;101093.75;;;10.59;76.55
54248;BME280;40161;39.768;2.722;2023-03-17T04:07:47;101104.47;;;10.48;75.60
54248;BME280;40161;39.768;2.722;2023-03-17T04:10:14;101102.25;;;10.54;76.59
54248;BME280;40161;39.768;2.722;2023-03-17T04:12:40;101106.06;;;10.49;75.86
54248;BME280;40161;39.768;2.722;2023-03-17T04:15:08;101068.97;;;10.23;76.93
54248;BME280;40161;39.768;2.722;2023-03-17T04:17:35;101107.91;;;10.61;76.31
54248;BME280;40161;39.768;2.722;2023-03-17T04:20:01;101111.03;;;10.43;77.21
54248;BME280;40161;39.768;2.722;2023-03-17T04:22:27;101117.56;;;10.71;77.37
54248;BME280;40161;39.768;2.722;2023-03-17T04:24:52;101106.50;;;10.67;75.83
54248;BME280;40161;39.768;2.722;2023-03-17T04:27:18;101087.94;;;10.44;76.88
54248;BME280;40161;39.768;2.722;2023-03-17T04:29:43;101096.06;;;10.41;77.55
54248;BME280;40161;39.768;2.722;2023-03-17T04:32:10;101092.25;;;10.61;77.35
54248;BME280;40161;39.768;2.722;2023-03-17T04:34:38;101095.28;;;10.40;76.50
54248;BME280;40161;39.768;2.722;2023-03-17T04:37:03;101093.78;;;10.27;78.62
54248;BME280;40161;39.768;2.722;2023-03-17T04:39:29;101101.44;;;10.21;76.57
54248;BME280;40161;39.768;2.722;2023-03-17T04:41:55;101072.44;;;9.89;77.33
54248;BME280;40161;39.768;2.722;2023-03-17T04:44:20;101088.38;;;9.99;79.04
54248;BME280;40161;39.768;2.722;2023-03-17T04:46:46;101087.03;;;10.09;79.24
54248;BME280;40161;39.768;2.722;2023-03-17T04:49:11;101079.16;;;10.07;78.61
54248;BME280;40161;39.768;2.722;2023-03-17T04:51:37;101092.34;;;10.17;79.54
54248;BME280;40161;39.768;2.722;2023-03-17T04:54:03;101086.19;;;10.36;78.16
54248;BME280;40161;39.768;2.722;2023-03-17T04:56:30;101092.88;;;10.23;79.36
54248;BME280;40161;39.768;2.722;2023-03-17T04:58:55;101095.28;;;10.40;78.02
54248;BME280;40161;39.768;2.722;2023-03-17T05:01:21;101096.03;;;10.25;77.33
54248;BME280;40161;39.768;2.722;2023-03-17T05:03:47;101101.09;;;10.07;79.03
54248;BME280;40161;39.768;2.722;2023-03-17T05:06:12;101107.22;;;10.16;78.34
54248;BME280;40161;39.768;2.722;2023-03-17T05:08:38;101113.56;;;10.05;79.24
54248;BME280;40161;39.768;2.722;2023-03-17T05:11:04;101110.75;;;10.17;79.34
54248;BME280;40161;39.768;2.722;2023-03-17T05:13:29;101107.28;;;10.20;78.40
54248;BME280;40161;39.768;2.722;2023-03-17T05:15:55;101105.72;;;10.35;76.94
54248;BME280;40161;39.768;2.722;2023-03-17T05:18:23;101074.03;;;10.06;77.18
54248;BME280;40161;39.768;2.722;2023-03-17T05:20:49;101115.91;;;10.34;78.59
54248;BME280;40161;39.768;2.722;2023-03-17T05:23:14;101102.69;;;10.24;77.15
54248;BME280;40161;39.768;2.722;2023-03-17T05:25:40;101115.38;;;10.29;77.60
54248;BME280;40161;39.768;2.722;2023-03-17T05:28:07;101106.22;;;10.25;77.42
54248;BME280;40161;39.768;2.722;2023-03-17T05:30:33;101074.69;;;9.55;79.63
54248;BME280;40161;39.768;2.722;2023-03-17T05:33:01;101112.59;;;9.81;79.95
54248;BME280;40161;39.768;2.722;2023-03-17T05:35:26;101113.47;;;9.85;79.74
54248;BME280;40161;39.768;2.722;2023-03-17T05:37:52;101105.56;;;9.84;80.00
54248;BME280;40161;39.768;2.722;2023-03-17T05:40:18;101103.56;;;9.96;79.93
54248;BME280;40161;39.768;2.722;2023-03-17T05:42:43;101106.06;;;10.17;79.25
54248;BME280;40161;39.768;2.722;2023-03-17T05:45:09;101087.31;;;9.88;79.14
54248;BME280;40161;39.768;2.722;2023-03-17T05:47:35;101108.22;;;9.80;80.23
54248;BME280;40161;39.768;2.722;2023-03-17T05:50:01;101069.91;;;9.52;80.64
54248;BME280;40161;39.768;2.722;2023-03-17T05:52:27;101101.44;;;9.74;81.12
54248;BME280;40161;39.768;2.722;2023-03-17T05:54:53;101102.50;;;10.01;81.19
54248;BME280;40161;39.768;2.722;2023-03-17T05:57:20;101069.78;;;9.92;80.47
54248;BME280;40161;39.768;2.722;2023-03-17T05:59:46;101104.19;;;10.06;79.37
54248;BME280;40161;39.768;2.722;2023-03-17T06:02:12;101095.34;;;9.81;79.00
54248;BME280;40161;39.768;2.722;2023-03-17T06:04:38;101104.06;;;9.70;80.88
54248;BME280;40161;39.768;2.722;2023-03-17T06:07:03;101089.13;;;9.84;81.06
54248;BME280;40161;39.768;2.722;2023-03-17T06:09:30;101098.34;;;9.91;80.32
54248;BME280;40161;39.768;2.722;2023-03-17T06:11:56;101094.53;;;9.80;79.93
54248;BME280;40161;39.768;2.722;2023-03-17T06:14:22;101080.91;;;9.68;81.21
54248;BME280;40161;39.768;2.722;2023-03-17T06:16:48;101079.25;;;9.95;80.43
54248;BME280;40161;39.768;2.722;2023-03-17T06:19:13;101091.25;;;9.90;78.65
54248;BME280;40161;39.768;2.722;2023-03-17T06:21:39;101081.00;;;9.87;79.87
54248;BME280;40161;39.768;2.722;2023-03-17T06:24:06;101089.50;;;10.14;79.16
54248;BME280;40161;39.768;2.722;2023-03-17T06:26:32;101084.47;;;9.84;78.36
54248;BME280;40161;39.768;2.722;2023-03-17T06:28:58;101089.84;;;9.96;80.35
54248;BME280;40161;39.768;2.722;2023-03-17T06:31:24;101093.91;;;9.71;80.69
54248;BME280;40161;39.768;2.722;2023-03-17T06:33:50;101100.09;;;9.84;81.61
54248;BME280;40161;39.768;2.722;2023-03-17T06:36:16;101110.44;;;9.90;81.13
54248;BME280;40161;39.768;2.722;2023-03-17T06:38:42;101090.75;;;10.01;80.16
54248;BME280;40161;39.768;2.722;2023-03-17T06:41:08;101098.19;;;10.16;79.77
54248;BME280;40161;39.768;2.722;2023-03-17T06:43:34;101102.59;;;10.20;79.16
54248;BME280;40161;39.768;2.722;2023-03-17T06:46:00;101055.72;;;9.94;79.86
54248;BME280;40161;39.768;2.722;2023-03-17T06:48:26;101101.53;;;10.25;80.45
54248;BME280;40161;39.768;2.722;2023-03-17T06:50:53;101091.28;;;10.22;79.69
54248;BME280;40161;39.768;2.722;2023-03-17T06:53:18;101101.44;;;10.21;79.30
54248;BME280;40161;39.768;2.722;2023-03-17T06:55:45;101103.31;;;10.17;79.84
54248;BME280;40161;39.768;2.722;2023-03-17T06:58:11;101107.69;;;10.34;80.19
54248;BME280;40161;39.768;2.722;2023-03-17T07:00:37;101095.91;;;10.34;79.53
54248;BME280;40161;39.768;2.722;2023-03-17T07:03:04;101093.09;;;10.30;79.61
54248;BME280;40161;39.768;2.722;2023-03-17T07:05:31;101096.44;;;10.39;79.32
54248;BME280;40161;39.768;2.722;2023-03-17T07:07:57;101101.47;;;10.37;79.90
54248;BME280;40161;39.768;2.722;2023-03-17T07:10:23;101104.13;;;10.50;79.42
54248;BME280;40161;39.768;2.722;2023-03-17T07:12:49;101096.16;;;10.44;78.36
54248;BME280;40161;39.768;2.722;2023-03-17T07:15:15;101091.75;;;10.40;79.75
54248;BME280;40161;39.768;2.722;2023-03-17T07:17:41;101088.38;;;10.47;79.93
54248;BME280;40161;39.768;2.722;2023-03-17T07:20:08;101100.78;;;10.40;81.12
54248;BME280;40161;39.768;2.722;2023-03-17T07:22:34;101042.81;;;10.10;80.93
54248;BME280;40161;39.768;2.722;2023-03-17T07:25:00;101089.09;;;10.43;81.36
54248;BME280;40161;39.768;2.722;2023-03-17T07:27:26;101083.94;;;10.58;80.44
54248;BME280;40161;39.768;2.722;2023-03-17T07:29:51;101072.75;;;10.66;79.65
54248;BME280;40161;39.768;2.722;2023-03-17T07:32:18;101075.38;;;10.79;79.56
54248;BME280;40161;39.768;2.722;2023-03-17T07:34:44;101070.13;;;10.89;79.14
54248;BME280;40161;39.768;2.722;2023-03-17T07:37:09;101065.94;;;10.96;78.76
54248;BME280;40161;39.768;2.722;2023-03-17T07:39:36;101080.81;;;11.14;78.01
54248;BME280;40161;39.768;2.722;2023-03-17T07:42:04;101079.13;;;11.25;78.97
54248;BME280;40161;39.768;2.722;2023-03-17T07:44:30;101078.78;;;11.11;79.46
54248;BME280;40161;39.768;2.722;2023-03-17T07:46:57;101067.94;;;11.18;79.91
54248;BME280;40161;39.768;2.722;2023-03-17T07:49:23;101071.16;;;11.20;79.29
54248;BME280;40161;39.768;2.722;2023-03-17T07:51:48;101069.97;;;11.21;79.80
54248;BME280;40161;39.768;2.722;2023-03-17T07:54:14;101073.97;;;11.24;80.39
54248;BME280;40161;39.768;2.722;2023-03-17T07:56:40;101086.59;;;11.48;80.78
54248;BME280;40161;39.768;2.722;2023-03-17T07:59:06;101090.16;;;11.48;79.07
54248;BME280;40161;39.768;2.722;2023-03-17T08:01:33;101094.41;;;11.46;79.23
54248;BME280;40161;39.768;2.722;2023-03-17T08:03:59;101100.94;;;11.57;78.51
54248;BME280;40161;39.768;2.722;2023-03-17T08:06:25;101056.38;;;11.48;77.87
54248;BME280;40161;39.768;2.722;2023-03-17T08:08:52;101062.56;;;11.64;77.17
54248;BME280;40161;39.768;2.722;2023-03-17T08:11:19;101057.19;;;11.71;76.51
54248;BME280;40161;39.768;2.722;2023-03-17T08:13:44;101096.72;;;12.05;76.54
54248;BME280;40161;39.768;2.722;2023-03-17T08:16:10;101087.00;;;12.11;75.77
54248;BME280;40161;39.768;2.722;2023-03-17T08:18:36;101092.63;;;12.19;75.70
54248;BME280;40161;39.768;2.722;2023-03-17T08:21:02;101092.38;;;12.27;75.06
54248;BME280;40161;39.768;2.722;2023-03-17T08:23:28;101048.56;;;12.15;75.25
54248;BME280;40161;39.768;2.722;2023-03-17T08:25:57;101080.16;;;12.51;75.00
54248;BME280;40161;39.768;2.722;2023-03-17T08:28:23;101070.41;;;12.57;74.30
54248;BME280;40161;39.768;2.722;2023-03-17T08:30:49;101079.66;;;12.72;74.06
54248;BME280;40161;39.768;2.722;2023-03-17T08:33:15;101080.50;;;12.76;74.78
54248;BME280;40161;39.768;2.722;2023-03-17T08:35:41;101090.47;;;12.85;74.60
54248;BME280;40161;39.768;2.722;2023-03-17T08:38:08;101095.28;;;12.91;72.83
54248;BME280;40161;39.768;2.722;2023-03-17T08:40:35;101051.38;;;12.75;72.56
54248;BME280;40161;39.768;2.722;2023-03-17T08:43:01;101094.72;;;13.09;70.48
54248;BME280;40161;39.768;2.722;2023-03-17T08:45:26;101099.16;;;13.17;69.77
54248;BME280;40161;39.768;2.722;2023-03-17T08:47:52;101084.53;;;13.13;68.83
54248;BME280;40161;39.768;2.722;2023-03-17T08:50:21;101108.94;;;13.41;68.33
54248;BME280;40161;39.768;2.722;2023-03-17T08:52:48;101103.53;;;13.51;69.41
54248;BME280;40161;39.768;2.722;2023-03-17T08:55:14;101106.41;;;13.62;69.71
54248;BME280;40161;39.768;2.722;2023-03-17T08:57:41;101086.66;;;13.57;69.14
54248;BME280;40161;39.768;2.722;2023-03-17T09:00:13;101119.63;;;13.83;70.02
54248;BME280;40161;39.768;2.722;2023-03-17T09:02:41;101125.28;;;13.94;70.50
54248;BME280;40161;39.768;2.722;2023-03-17T09:05:08;101127.41;;;14.11;72.09
54248;BME280;40161;39.768;2.722;2023-03-17T09:07:35;101127.88;;;14.20;71.43
54248;BME280;40161;39.768;2.722;2023-03-17T09:10:00;101132.38;;;14.39;71.40
54248;BME280;40161;39.768;2.722;2023-03-17T09:12:30;101093.22;;;14.27;71.31
54248;BME280;40161;39.768;2.722;2023-03-17T09:14:55;101098.84;;;14.41;71.65
54248;BME280;40161;39.768;2.722;2023-03-17T09:17:22;101126.78;;;14.77;70.61
54248;BME280;40161;39.768;2.722;2023-03-17T09:19:48;101120.03;;;14.74;70.75
54248;BME280;40161;39.768;2.722;2023-03-17T09:22:15;101112.59;;;14.85;69.48
54248;BME280;40161;39.768;2.722;2023-03-17T09:24:42;101091.69;;;14.84;69.28
54248;BME280;40161;39.768;2.722;2023-03-17T09:27:07;101061.66;;;14.79;68.65
54248;BME280;40161;39.768;2.722;2023-03-17T09:29:33;101093.75;;;15.05;68.37
54248;BME280;40161;39.768;2.722;2023-03-17T09:31:59;101083.16;;;15.14;67.54
54248;BME280;40161;39.768;2.722;2023-03-17T09:34:24;101071.28;;;15.10;67.55
54248;BME280;40161;39.768;2.722;2023-03-17T09:36:52;101074.88;;;15.22;66.43
54248;BME280;40161;39.768;2.722;2023-03-17T09:39:17;101084.78;;;15.30;66.47
54248;BME280;40161;39.768;2.722;2023-03-17T09:49:50;101098.38;;;15.78;63.08
54248;BME280;40161;39.768;2.722;2023-03-17T09:52:23;101073.00;;;15.54;63.63
54248;BME280;40161;39.768;2.722;2023-03-17T09:54:51;101081.78;;;15.71;63.54
54248;BME280;40161;39.768;2.722;2023-03-17T09:57:37;101113.03;;;15.96;63.14
54248;BME280;40161;39.768;2.722;2023-03-17T10:00:18;101119.41;;;16.07;64.00
54248;BME280;40161;39.768;2.722;2023-03-17T10:02:47;101096.84;;;15.95;63.76
54248;BME280;40161;39.768;2.722;2023-03-17T10:05:25;101101.19;;;16.06;63.32
54248;BME280;40161;39.768;2.722;2023-03-17T10:16:20;101093.28;;;16.19;55.72
54248;BME280;40161;39.768;2.722;2023-03-17T10:18:51;101122.56;;;16.49;53.04
54248;BME280;40161;39.768;2.722;2023-03-17T10:21:23;101119.00;;;16.52;52.10
54248;BME280;40161;39.768;2.722;2023-03-17T10:23:49;101115.44;;;16.66;51.80
54248;BME280;40161;39.768;2.722;2023-03-17T10:26:31;101103.13;;;16.81;50.21
54248;BME280;40161;39.768;2.722;2023-03-17T10:29:00;101069.88;;;16.70;51.54
54248;BME280;40161;39.768;2.722;2023-03-17T10:31:31;101113.81;;;16.93;52.33
54248;BME280;40161;39.768;2.722;2023-03-17T10:34:10;101069.47;;;16.72;52.03
54248;BME280;40161;39.768;2.722;2023-03-17T10:36:43;101106.25;;;17.01;51.83
54248;BME280;40161;39.768;2.722;2023-03-17T10:39:12;101095.16;;;17.08;50.98
54248;BME280;40161;39.768;2.722;2023-03-17T10:41:42;101109.72;;;17.26;51.56
54248;BME280;40161;39.768;2.722;2023-03-17T10:47:01;101097.81;;;17.29;51.96
54248;BME280;40161;39.768;2.722;2023-03-17T10:49:33;101100.94;;;17.46;51.83
54248;BME280;40161;39.768;2.722;2023-03-17T10:51:59;101108.44;;;17.52;51.83
54248;BME280;40161;39.768;2.722;2023-03-17T10:54:25;101097.69;;;17.58;51.30
54248;BME280;40161;39.768;2.722;2023-03-17T10:56:58;101089.34;;;17.58;50.45
54248;BME280;40161;39.768;2.722;2023-03-17T10:59:31;101094.44;;;17.70;50.98
54248;BME280;40161;39.768;2.722;2023-03-17T11:02:15;101083.75;;;17.76;50.26
54248;BME280;40161;39.768;2.722;2023-03-17T11:04:42;101079.34;;;17.75;47.20
54248;BME280;40161;39.768;2.722;2023-03-17T11:09:39;101077.00;;;17.77;46.05
54248;BME280;40161;39.768;2.722;2023-03-17T11:12:17;101047.69;;;17.62;45.02
54248;BME280;40161;39.768;2.722;2023-03-17T11:14:46;101044.84;;;17.79;43.25
54248;BME280;40161;39.768;2.722;2023-03-17T11:22:43;101081.16;;;18.07;44.90
54248;BME280;40161;39.768;2.722;2023-03-17T11:25:17;101081.94;;;18.07;44.38
54248;BME280;40161;39.768;2.722;2023-03-17T11:33:16;101069.31;;;17.95;43.95
54248;BME280;40161;39.768;2.722;2023-03-17T11:38:34;101101.34;;;18.11;45.50
54248;BME280;40161;39.768;2.722;2023-03-17T11:41:22;101106.81;;;18.21;45.41
54248;BME280;40161;39.768;2.722;2023-03-17T11:56:57;101098.25;;;17.98;55.37
54248;BME280;40161;39.768;2.722;2023-03-17T12:05:09;101103.38;;;18.07;56.35
54248;BME280;40161;39.768;2.722;2023-03-17T12:08:02;101092.59;;;18.12;56.01
54248;BME280;40161;39.768;2.722;2023-03-17T12:10:33;101081.13;;;18.10;54.60
54248;BME280;40161;39.768;2.722;2023-03-17T12:13:08;101078.38;;;18.07;53.77
54248;BME280;40161;39.768;2.722;2023-03-17T12:15:43;101042.28;;;18.03;54.40
54248;BME280;40161;39.768;2.722;2023-03-17T12:18:29;101063.13;;;18.25;55.40
54248;BME280;40161;39.768;2.722;2023-03-17T12:23:38;101068.56;;;18.36;54.99
54248;BME280;40161;39.768;2.722;2023-03-17T12:28:55;101029.50;;;18.13;57.56
54248;BME280;40161;39.768;2.722;2023-03-17T12:31:27;101023.91;;;18.16;58.62
54248;BME280;40161;39.768;2.722;2023-03-17T12:34:19;101051.19;;;18.29;58.46
54248;BME280;40161;39.768;2.722;2023-03-17T12:36:46;101041.31;;;18.24;57.67
54248;BME280;40161;39.768;2.722;2023-03-17T12:39:13;101020.06;;;18.07;56.57
54248;BME280;40161;39.768;2.722;2023-03-17T12:50:23;101034.72;;;18.48;58.13
54248;BME280;40161;39.768;2.722;2023-03-17T12:55:51;101014.19;;;18.39;58.27
54248;BME280;40161;39.768;2.722;2023-03-17T13:00:53;101030.75;;;18.49;59.53
54248;BME280;40161;39.768;2.722;2023-03-17T13:03:25;101006.63;;;18.39;58.93
54248;BME280;40161;39.768;2.722;2023-03-17T13:05:56;101022.78;;;18.52;57.98
54248;BME280;40161;39.768;2.722;2023-03-17T13:08:31;101042.47;;;18.64;58.25
54248;BME280;40161;39.768;2.722;2023-03-17T13:11:19;101051.22;;;18.66;58.58
54248;BME280;40161;39.768;2.722;2023-03-17T13:16:39;101013.38;;;18.42;55.89
54248;BME280;40161;39.768;2.722;2023-03-17T13:19:17;101045.34;;;18.57;58.11
54248;BME280;40161;39.768;2.722;2023-03-17T13:24:51;101006.22;;;18.41;58.53
54248;BME280;40161;39.768;2.722;2023-03-17T13:29:55;101028.28;;;18.59;57.58
54248;BME280;40161;39.768;2.722;2023-03-17T13:35:11;101027.81;;;18.64;57.06
54248;BME280;40161;39.768;2.722;2023-03-17T13:40:19;101023.84;;;18.61;56.87
54248;BME280;40161;39.768;2.722;2023-03-17T13:43:39;101012.78;;;18.58;57.56
54248;BME280;40161;39.768;2.722;2023-03-17T13:46:20;101007.69;;;18.53;56.66
54248;BME280;40161;39.768;2.722;2023-03-17T13:48:46;100997.81;;;18.48;57.76
54248;BME280;40161;39.768;2.722;2023-03-17T13:51:20;101008.91;;;18.52;58.37
54248;BME280;40161;39.768;2.722;2023-03-17T13:53:51;100999.75;;;18.51;58.17
54248;BME280;40161;39.768;2.722;2023-03-17T14:01:36;100959.44;;;18.36;57.86
54248;BME280;40161;39.768;2.722;2023-03-17T14:04:05;100980.63;;;18.57;57.79
54248;BME280;40161;39.768;2.722;2023-03-17T14:06:37;100949.41;;;18.45;58.06
54248;BME280;40161;39.768;2.722;2023-03-17T14:09:18;100930.41;;;18.40;57.59
54248;BME280;40161;39.768;2.722;2023-03-17T14:11:51;100951.41;;;18.45;56.77
54248;BME280;40161;39.768;2.722;2023-03-17T14:16:59;100969.47;;;18.60;56.75
54248;BME280;40161;39.768;2.722;2023-03-17T14:19:28;100959.31;;;18.46;56.83
54248;BME280;40161;39.768;2.722;2023-03-17T14:22:23;100975.41;;;18.62;57.08
54248;BME280;40161;39.768;2.722;2023-03-17T14:24:54;100973.47;;;18.59;55.73
54248;BME280;40161;39.768;2.722;2023-03-17T14:27:22;100980.25;;;18.58;56.42
54248;BME280;40161;39.768;2.722;2023-03-17T14:29:48;100976.00;;;18.46;55.46
54248;BME280;40161;39.768;2.722;2023-03-17T14:32:16;100986.28;;;18.49;55.37
54248;BME280;40161;39.768;2.722;2023-03-17T14:34:45;100979.56;;;18.47;55.28
54248;BME280;40161;39.768;2.722;2023-03-17T14:37:12;100996.63;;;18.49;55.67